Currently 49°F in Riverside (Presidential Park), California, USA
49°F
50°F / 49°F
2 mph E
0.02"
Sunday, January 22, 2017 4:13 AM PST

Riverside (Presidential Park), California Weather Summary
Last 36 Hours

Temperature Winds Hourly Humidity Dewpoint
Time Report Norm Report Norm Max Gusts Precip. Rpt. Norm Rpt. Norm Pressure
1Sun 04:13 AM  49.2°F  50°F  2 mph E  1 mph  3 mph  0.00"  89%  64%  46°F  38°F  30.09"
Sun 04:00 AM  49.1°F  50°F  calm  2 mph  5 mph  0.01"  89%  64%  46°F  38°F  30.11"
Sun 03:00 AM  50.2°F  51°F  3 mph E  1 mph  8 mph  0.01"  87%  63%  46°F  38°F  30.08"
2Sun 02:14 AM  50.3°F  52°F  2 mph SE  2 mph  5 mph  ----  85%  61%  46°F  38°F  30.09"
Sun 02:00 AM  49.9°F  52°F  2 mph SE  1 mph  7 mph  0.00"  85%  61%  45°F  38°F  30.09"
3Sun 01:08 AM  48.7°F  52°F  5 mph SE  1 mph  6 mph  ----  84%  60%  44°F  38°F  30.09"
Sun 01:00 AM  49.0°F  53°F  3 mph SE  1 mph  3 mph  0.00"  84%  60%  44°F  39°F  30.09"
Sun 12:00 AM  49.5°F  53°F  1 mph E  1 mph  5 mph  0.00"  85%  59%  45°F  39°F  30.11"
Sat 11:00 PM  50.3°F  54°F  3 mph E  1 mph  5 mph  0.00"  86%  57%  46°F  39°F  30.09"
Sat 10:00 PM  50.7°F  56°F  3 mph E  1 mph  4 mph  0.00"  84%  54%  46°F  39°F  30.09"
Sat 09:00 PM  52.1°F  57°F  calm  2 mph  5 mph  0.00"  82%  52%  47°F  39°F  30.09"
Sat 08:00 PM  52.1°F  59°F  1 mph W  1 mph  5 mph  0.00"  81%  48%  46°F  39°F  30.06"
Sat 07:00 PM  52.8°F  62°F  2 mph S  2 mph  4 mph  0.00"  75%  45%  45°F  39°F  30.03"
Sat 06:00 PM  54.3°F  64°F  2 mph W  3 mph  9 mph  0.00"  70%  41%  44°F  39°F  29.99"
Sat 05:00 PM  57.6°F  68°F  3 mph W  4 mph  7 mph  0.00"  60%  36%  43°F  39°F  29.97"
Sat 04:00 PM  58.1°F  70°F  5 mph W  5 mph  12 mph  0.00"  56%  33%  42°F  38°F  29.96"
Sat 03:00 PM  58.7°F  71°F  1 mph S  6 mph  7 mph  0.00"  55%  32%  42°F  38°F  29.94"
Sat 02:00 PM  58.7°F  71°F  2 mph SE  5 mph  18 mph  0.00"  56%  31%  42°F  38°F  29.93"
Sat 01:00 PM  57.6°F  71°F  1 mph W  4 mph  10 mph  0.00"  58%  32%  43°F  38°F  29.92"
Sat 12:00 PM  55.2°F  68°F  1 mph S  4 mph  9 mph  0.00"  62%  35%  42°F  39°F  29.92"
Sat 11:00 AM  53.0°F  66°F  3 mph E  3 mph  7 mph  0.00"  72%  40%  44°F  40°F  29.91"
Sat 10:00 AM  50.7°F  62°F  3 mph S  3 mph  8 mph  0.00"  78%  47%  44°F  40°F  29.89"
Sat 09:00 AM  49.2°F  57°F  2 mph W  2 mph  7 mph  0.00"  79%  54%  43°F  40°F  29.85"
Sat 08:00 AM  46.5°F  51°F  calm  2 mph  8 mph  0.00"  84%  61%  42°F  38°F  29.80"
Sat 07:00 AM  46.6°F  50°F  5 mph W  1 mph  11 mph  0.00"  82%  63%  41°F  37°F  29.76"
Sat 06:00 AM  46.9°F  50°F  4 mph SW  1 mph  15 mph  0.00"  83%  63%  42°F  37°F  29.72"
Sat 05:00 AM  47.7°F  50°F  5 mph SW  1 mph  13 mph  0.00"  85%  63%  43°F  37°F  29.67"
Sat 04:00 AM  47.8°F  50°F  6 mph SW  1 mph  11 mph  0.00"  84%  63%  43°F  37°F  29.65"
Sat 03:00 AM  48.9°F  51°F  6 mph SW  1 mph  21 mph  0.00"  82%  62%  43°F  37°F  29.63"
Sat 02:00 AM  49.2°F  52°F  7 mph SW  1 mph  17 mph  0.00"  78%  60%  42°F  38°F  29.60"
Sat 01:00 AM  49.5°F  52°F  6 mph SW  1 mph  14 mph  0.00"  79%  59%  43°F  38°F  29.57"
Sat 12:00 AM  50.2°F  53°F  7 mph SW  1 mph  15 mph  0.00"  81%  57%  44°F  38°F  29.56"
Fri 11:00 PM  50.4°F  54°F  8 mph SW  1 mph  24 mph  0.00"  82%  56%  45°F  38°F  29.55"
Fri 10:00 PM  51.3°F  55°F  10 mph SW  1 mph  24 mph  0.00"  80%  53%  45°F  38°F  29.53"
Fri 09:00 PM  50.8°F  57°F  7 mph SW  1 mph  17 mph  0.00"  85%  50%  46°F  38°F  29.52"
Fri 08:00 PM  51.0°F  59°F  8 mph SW  1 mph  21 mph  0.00"  87%  47%  47°F  38°F  29.50"
Fri 07:00 PM  51.7°F  62°F  13 mph SW  2 mph  23 mph  0.01"  80%  43%  45°F  38°F  29.48"
Fri 06:00 PM  52.9°F  65°F  7 mph SW  3 mph  21 mph  0.00"  80%  39%  47°F  38°F  29.45"
Fri 05:00 PM  53.1°F  68°F  6 mph SW  4 mph  20 mph  0.01"  84%  34%  48°F  37°F  29.43"

  1. Current weather data. No green row appears if the current weather data is also the high or low for the current day.
  2. High temperature for the current day.
  3. Low temperature for the current day.

The Riverside (Presidential Park), California weather pages are a service of WeatherCurrents.
Copyright ©Sun Jan 22 04:13:22 PST 2017  WeatherCurrents. All rights reserved. - Submit questions and comments - Privacy Policy

This page automatically refreshes every 10 minutes.